createdAt,value
2023-07-08T04:00:36.601Z,477.00
2023-07-08T04:01:37.583Z,473.00
2023-07-08T04:02:37.582Z,480.00
2023-07-08T04:03:37.608Z,486.00
2023-07-08T04:04:37.534Z,491.00
2023-07-08T04:05:37.552Z,495.00
2023-07-08T04:06:37.512Z,503.00
2023-07-08T04:07:37.496Z,503.00
2023-07-08T04:08:37.489Z,510.00
2023-07-08T04:09:37.477Z,513.00
2023-07-08T04:10:37.464Z,520.00
2023-07-08T04:11:37.486Z,518.00
2023-07-08T04:12:37.432Z,523.00
2023-07-08T04:13:37.448Z,535.00
2023-07-08T04:14:37.416Z,537.00
2023-07-08T04:15:37.415Z,544.00
2023-07-08T04:16:37.405Z,544.00
2023-07-08T04:17:37.404Z,542.00
2023-07-08T04:18:37.386Z,551.00
2023-07-08T04:19:37.362Z,555.00
2023-07-08T04:20:37.372Z,560.00
2023-07-08T04:21:37.367Z,561.00
2023-07-08T04:22:37.331Z,563.00
2023-07-08T04:23:37.334Z,571.00
2023-07-08T04:24:37.327Z,567.00
2023-07-08T04:25:37.299Z,574.00
2023-07-08T04:26:37.333Z,577.00
2023-07-08T04:27:37.286Z,578.00
2023-07-08T04:28:37.302Z,582.00
2023-07-08T04:29:37.259Z,585.00
2023-07-08T04:30:37.302Z,585.00
2023-07-08T04:31:37.254Z,589.00
2023-07-08T04:32:37.299Z,591.00
2023-07-08T04:33:37.218Z,597.00
2023-07-08T04:34:37.208Z,598.00
2023-07-08T04:35:37.191Z,598.00
2023-07-08T04:36:37.196Z,602.00
2023-07-08T04:37:37.199Z,595.00
2023-07-08T04:38:37.163Z,608.00
2023-07-08T04:39:37.167Z,608.00
2023-07-08T04:40:37.150Z,605.00
2023-07-08T04:41:37.210Z,609.00
2023-07-08T04:42:38.814Z,612.00
2023-07-08T04:43:37.108Z,612.00
2023-07-08T04:44:37.086Z,608.00
2023-07-08T04:45:37.077Z,613.00
2023-07-08T04:46:37.125Z,612.00
2023-07-08T04:47:37.092Z,612.00
2023-07-08T04:48:37.177Z,618.00
2023-07-08T04:49:37.045Z,614.00
2023-07-08T04:50:37.054Z,618.00
2023-07-08T04:51:37.017Z,616.00
2023-07-08T04:52:37.000Z,615.00
2023-07-08T04:53:37.001Z,616.00
2023-07-08T04:54:36.987Z,621.00
2023-07-08T04:55:36.987Z,622.00
2023-07-08T04:56:36.960Z,615.00
2023-07-08T04:57:36.951Z,617.00
2023-07-08T04:58:36.948Z,619.00
2023-07-08T04:59:36.940Z,616.00
2023-07-08T05:00:36.938Z,616.00
2023-07-08T05:01:37.003Z,618.00
2023-07-08T05:02:36.948Z,617.00
2023-07-08T05:03:36.976Z,616.00
2023-07-08T05:04:36.887Z,616.00
2023-07-08T05:05:36.873Z,616.00
2023-07-08T05:06:36.858Z,620.00
2023-07-08T05:07:36.869Z,616.00
2023-07-08T05:08:36.834Z,611.00
2023-07-08T05:09:36.829Z,612.00
2023-07-08T05:10:36.806Z,609.00
2023-07-08T05:11:36.801Z,612.00
2023-07-08T05:12:36.797Z,604.00
2023-07-08T05:13:36.828Z,602.00
2023-07-08T05:14:36.769Z,605.00
2023-07-08T05:15:36.867Z,598.00
2023-07-08T05:16:36.837Z,598.00
2023-07-08T05:17:36.752Z,597.00
2023-07-08T05:18:36.787Z,597.00
2023-07-08T05:19:36.714Z,596.00
2023-07-08T05:20:36.688Z,593.00
2023-07-08T05:21:36.702Z,592.00
2023-07-08T05:22:36.671Z,593.00
2023-07-08T05:23:36.681Z,590.00
2023-07-08T05:24:36.647Z,588.00
2023-07-08T05:25:36.654Z,585.00
2023-07-08T05:26:36.656Z,585.00
2023-07-08T05:27:36.640Z,587.00
2023-07-08T05:28:36.608Z,584.00
2023-07-08T05:29:36.615Z,581.00
2023-07-08T05:30:36.586Z,582.00
2023-07-08T05:32:36.604Z,578.00
2023-07-08T05:33:36.571Z,575.00
2023-07-08T05:34:36.539Z,577.00
2023-07-08T05:35:36.545Z,574.00
2023-07-08T05:36:36.557Z,582.00
2023-07-08T05:37:36.528Z,576.00
2023-07-08T05:38:36.509Z,576.00
2023-07-08T05:39:36.491Z,575.00
2023-07-08T05:40:36.470Z,583.00
2023-07-08T05:41:36.490Z,562.00
2023-07-08T05:42:36.461Z,571.00
2023-07-08T05:43:36.463Z,570.00
2023-07-08T05:44:36.480Z,568.00
2023-07-08T05:45:36.476Z,558.00
2023-07-08T05:46:36.513Z,561.00
2023-07-08T05:47:36.414Z,557.00
2023-07-08T05:48:36.393Z,549.00
2023-07-08T05:49:36.397Z,557.00
2023-07-08T05:50:36.387Z,545.00
2023-07-08T05:51:36.366Z,545.00
2023-07-08T05:52:36.605Z,547.00
2023-07-08T05:53:36.365Z,523.00
2023-07-08T05:54:36.349Z,572.00
2023-07-08T05:55:36.315Z,536.00
2023-07-08T05:56:36.313Z,540.00
2023-07-08T05:57:36.341Z,537.00
2023-07-08T05:58:36.283Z,539.00
2023-07-08T05:59:36.442Z,534.00
2023-07-08T06:00:38.958Z,528.00
2023-07-08T06:01:36.296Z,523.00
2023-07-08T06:02:36.285Z,526.00
2023-07-08T06:03:36.305Z,525.00
2023-07-08T06:04:36.287Z,522.00
2023-07-08T06:05:36.246Z,526.00
2023-07-08T06:06:36.230Z,531.00
2023-07-08T06:07:36.212Z,525.00
2023-07-08T06:08:36.359Z,530.00
2023-07-08T06:09:36.229Z,551.00
2023-07-08T06:10:36.255Z,562.00
2023-07-08T06:11:36.195Z,552.00
2023-07-08T06:12:36.136Z,556.00
2023-07-08T06:13:36.152Z,567.00
2023-07-08T06:14:36.101Z,544.00
2023-07-08T06:15:36.189Z,574.00
2023-07-08T06:16:41.409Z,578.00
2023-07-08T06:17:36.165Z,595.00
2023-07-08T06:18:36.087Z,596.00
2023-07-08T06:19:36.097Z,611.00
2023-07-08T06:20:36.095Z,604.00
2023-07-08T06:21:36.092Z,599.00
2023-07-08T06:23:36.057Z,625.00
2023-07-08T06:24:36.015Z,622.00
2023-07-08T06:25:36.031Z,625.00
2023-07-08T06:26:36.056Z,614.00
2023-07-08T06:27:36.039Z,655.00
2023-07-08T06:28:35.945Z,639.00
2023-07-08T06:29:35.956Z,667.00
2023-07-08T06:30:35.979Z,653.00
2023-07-08T06:31:36.028Z,654.00
2023-07-08T06:32:36.008Z,646.00
2023-07-08T06:33:35.980Z,659.00
2023-07-08T06:34:35.982Z,685.00
2023-07-08T06:35:35.905Z,658.00
2023-07-08T06:36:35.943Z,676.00
2023-07-08T06:37:35.907Z,688.00
2023-07-08T06:38:35.887Z,680.00
2023-07-08T06:39:35.858Z,691.00
2023-07-08T06:40:35.835Z,690.00
2023-07-08T06:41:35.810Z,699.00
2023-07-08T06:42:35.807Z,707.00
2023-07-08T06:43:35.855Z,711.00
2023-07-08T06:44:35.797Z,717.00
2023-07-08T06:45:35.791Z,730.00
2023-07-08T06:46:35.762Z,732.00
2023-07-08T06:47:35.796Z,741.00
2023-07-08T06:48:35.759Z,726.00
2023-07-08T06:49:35.738Z,767.00
2023-07-08T06:50:35.729Z,757.00
2023-07-08T06:51:35.721Z,760.00
2023-07-08T06:52:35.775Z,771.00
2023-07-08T06:53:35.688Z,786.00
2023-07-08T06:54:36.200Z,787.00
2023-07-08T06:55:35.663Z,797.00
2023-07-08T06:56:35.659Z,808.00
2023-07-08T06:57:35.648Z,824.00
2023-07-08T06:58:35.633Z,834.00
2023-07-08T06:59:35.622Z,847.00
2023-07-08T07:00:35.605Z,854.00
2023-07-08T07:01:35.678Z,873.00
2023-07-08T07:02:35.616Z,884.00
2023-07-08T07:03:35.643Z,906.00
2023-07-08T07:04:35.600Z,896.00
2023-07-08T07:05:35.609Z,921.00
2023-07-08T07:06:35.563Z,933.00
2023-07-08T07:07:35.715Z,942.00
2023-07-08T07:08:35.540Z,950.00
2023-07-08T07:09:35.661Z,972.00
2023-07-08T07:10:37.300Z,977.00
2023-07-08T07:11:35.536Z,1002.00
2023-07-08T07:12:35.522Z,1012.00
2023-07-08T07:13:35.520Z,1007.00
2023-07-08T07:15:35.446Z,1051.00
2023-07-08T07:16:35.485Z,1083.00
2023-07-08T07:17:35.522Z,1100.00
2023-07-08T07:18:35.431Z,1109.00
2023-07-08T07:19:35.404Z,1122.00
2023-07-08T07:20:35.409Z,1141.00
2023-07-08T07:21:35.404Z,1159.00
2023-07-08T07:22:35.413Z,1171.00
2023-07-08T07:23:35.398Z,1189.00
2023-07-08T07:24:35.451Z,1206.00
2023-07-08T07:25:35.338Z,1226.00
2023-07-08T07:26:36.217Z,1241.00
2023-07-08T07:27:35.350Z,1283.00
2023-07-08T07:28:35.364Z,1306.00
2023-07-08T07:29:35.368Z,1305.00
2023-07-08T07:30:35.289Z,1339.00
2023-07-08T07:31:35.397Z,1338.00
2023-07-08T07:32:35.281Z,1367.00
2023-07-08T07:33:35.294Z,1352.00
2023-07-08T07:34:35.263Z,1404.00
2023-07-08T07:35:35.249Z,1402.00
2023-07-08T07:36:35.328Z,1413.00
2023-07-08T07:37:35.250Z,1438.00
2023-07-08T07:38:35.287Z,1461.00
2023-07-08T07:39:35.359Z,1463.00
2023-07-08T07:40:35.275Z,1505.00
2023-07-08T07:41:35.227Z,1537.00
2023-07-08T07:42:35.233Z,1565.00
2023-07-08T07:43:35.310Z,1574.00
2023-07-08T07:44:35.200Z,1582.00
2023-07-08T07:45:35.191Z,1633.00
2023-07-08T07:46:35.172Z,1631.00
2023-07-08T07:47:36.276Z,1639.00
2023-07-08T07:48:35.137Z,1642.00
2023-07-08T07:49:35.179Z,1659.00
2023-07-08T07:50:35.171Z,1697.00
2023-07-08T07:51:35.152Z,1693.00
2023-07-08T07:52:35.100Z,1730.00
2023-07-08T07:53:35.080Z,1799.00
2023-07-08T07:54:35.079Z,1768.00
2023-07-08T07:55:35.070Z,1688.00
2023-07-08T07:56:35.100Z,1764.00
2023-07-08T07:57:35.093Z,1796.00
2023-07-08T07:58:35.025Z,1779.00
2023-07-08T07:59:35.112Z,1815.00
2023-07-08T08:00:35.046Z,1843.00
2023-07-08T08:01:35.098Z,1880.00
2023-07-08T08:02:35.116Z,1885.00
2023-07-08T08:03:35.022Z,1908.00
2023-07-08T08:04:35.087Z,1932.00
2023-07-08T08:05:34.945Z,1945.00
2023-07-08T08:06:34.943Z,1940.00
2023-07-08T08:07:34.912Z,1954.00
2023-07-08T08:08:38.105Z,1979.00
2023-07-08T08:09:34.893Z,1995.00
2023-07-08T08:10:34.898Z,2006.00
2023-07-08T08:11:34.894Z,2041.00
2023-07-08T08:12:44.427Z,2042.00
2023-07-08T08:13:34.911Z,2046.00
2023-07-08T08:14:34.844Z,2038.00
2023-07-08T08:15:34.827Z,2056.00
2023-07-08T08:16:34.822Z,2059.00
2023-07-08T08:17:34.862Z,2090.00
2023-07-08T08:18:34.778Z,2120.00
2023-07-08T08:19:34.796Z,2118.00
2023-07-08T08:20:34.832Z,2190.00
2023-07-08T08:21:34.764Z,2189.00
2023-07-08T08:22:34.759Z,2202.00
2023-07-08T08:23:34.732Z,2197.00
2023-07-08T08:24:34.737Z,2216.00
2023-07-08T08:25:34.774Z,2229.00
2023-07-08T08:26:34.738Z,2235.00
2023-07-08T08:27:34.695Z,2261.00
2023-07-08T08:28:34.680Z,2271.00
2023-07-08T08:29:34.669Z,2261.00
2023-07-08T08:30:34.692Z,2314.00
2023-07-08T08:31:34.723Z,2308.00
2023-07-08T08:32:34.760Z,2329.00
2023-07-08T08:33:34.638Z,2302.00
2023-07-08T08:34:34.627Z,2357.00
2023-07-08T08:35:34.620Z,2385.00
2023-07-08T08:36:34.647Z,2414.00
2023-07-08T08:37:34.598Z,2454.00
2023-07-08T08:38:35.233Z,2429.00
2023-07-08T08:39:34.566Z,2470.00
2023-07-08T08:40:34.563Z,2479.00
2023-07-08T08:41:34.651Z,2506.00
2023-07-08T08:42:34.638Z,2531.00
2023-07-08T08:43:34.548Z,2537.00
2023-07-08T08:44:34.525Z,2529.00
2023-07-08T08:45:34.529Z,2571.00
2023-07-08T08:46:34.652Z,2603.00
2023-07-08T08:47:34.528Z,2678.00
2023-07-08T08:48:34.491Z,2674.00
2023-07-08T08:49:34.513Z,2706.00
2023-07-08T08:50:34.533Z,2744.00
2023-07-08T08:51:34.462Z,2786.00
2023-07-08T08:52:34.465Z,2809.00
2023-07-08T08:53:34.424Z,2813.00
2023-07-08T08:54:34.446Z,2879.00
2023-07-08T08:55:34.416Z,2916.00
2023-07-08T08:56:34.392Z,2971.00
2023-07-08T08:57:34.391Z,2969.00
2023-07-08T08:58:34.374Z,3023.00
2023-07-08T08:59:34.416Z,3104.00
2023-07-08T09:00:34.363Z,3112.00
2023-07-08T09:01:37.036Z,3135.00
2023-07-08T09:02:34.411Z,3207.00
2023-07-08T09:03:34.346Z,3306.00
2023-07-08T09:04:34.483Z,3328.00
2023-07-08T09:05:34.300Z,3383.00
2023-07-08T09:06:34.289Z,3429.00
2023-07-08T09:07:34.506Z,3477.00
2023-07-08T09:08:34.300Z,3452.00
2023-07-08T09:09:34.321Z,3507.00
2023-07-08T09:10:34.256Z,3497.00
2023-07-08T09:11:34.253Z,3508.00
2023-07-08T09:12:34.366Z,3525.00
2023-07-08T09:13:34.253Z,3581.00
2023-07-08T09:14:34.231Z,3586.00
2023-07-08T09:15:34.279Z,3655.00
2023-07-08T09:16:34.312Z,3680.00
2023-07-08T09:17:37.089Z,3639.00
2023-07-08T09:18:34.190Z,3742.00
2023-07-08T09:19:34.233Z,3738.00
2023-07-08T09:20:34.141Z,3804.00
2023-07-08T09:21:34.122Z,3832.00
2023-07-08T09:22:34.163Z,3895.00
2023-07-08T09:23:34.132Z,3816.00
2023-07-08T09:24:34.214Z,3871.00
2023-07-08T09:25:34.160Z,3920.00
2023-07-08T09:26:34.098Z,3952.00
2023-07-08T09:27:34.140Z,3984.00
2023-07-08T09:28:34.147Z,4031.00
2023-07-08T09:29:34.064Z,4118.00
2023-07-08T09:30:34.088Z,4091.00
2023-07-08T09:31:34.069Z,4103.00
2023-07-08T09:32:34.062Z,4187.00
2023-07-08T09:33:34.515Z,4186.00
2023-07-08T09:34:34.059Z,4171.00
2023-07-08T09:35:34.028Z,4263.00
2023-07-08T09:36:33.967Z,4241.00
2023-07-08T09:37:34.085Z,4292.00
2023-07-08T09:38:33.980Z,4243.00
2023-07-08T09:39:33.983Z,4278.00
2023-07-08T09:40:33.979Z,4267.00
2023-07-08T09:41:33.959Z,4289.00
2023-07-08T09:42:33.949Z,4342.00
2023-07-08T09:43:33.894Z,4336.00
2023-07-08T09:44:33.973Z,4314.00
2023-07-08T09:45:33.935Z,4349.00
2023-07-08T09:46:33.973Z,4371.00
2023-07-08T09:47:33.986Z,4398.00
2023-07-08T09:48:33.868Z,4444.00
2023-07-08T09:49:33.850Z,4414.00
2023-07-08T09:50:33.924Z,4379.00
2023-07-08T09:51:33.903Z,4461.00
2023-07-08T09:52:33.800Z,4433.00
2023-07-08T09:53:33.786Z,4460.00
2023-07-08T09:54:33.988Z,4495.00
2023-07-08T09:55:33.769Z,4486.00
2023-07-08T09:56:33.762Z,4511.00
2023-07-08T09:57:33.747Z,4555.00
2023-07-08T09:58:33.838Z,4410.00
2023-07-08T09:59:33.743Z,4561.00
2023-07-08T10:00:33.734Z,4619.00
2023-07-08T10:01:33.823Z,4633.00
2023-07-08T10:02:33.776Z,4648.00
2023-07-08T10:03:33.877Z,4734.00
2023-07-08T10:04:33.831Z,4682.00
2023-07-08T10:05:33.686Z,4786.00
2023-07-08T10:06:33.711Z,4763.00
2023-07-08T10:07:33.675Z,4843.00
2023-07-08T10:08:33.680Z,4851.00
2023-07-08T10:09:33.662Z,4892.00
2023-07-08T10:10:33.632Z,4932.00
2023-07-08T10:11:33.615Z,4967.00
2023-07-08T10:12:33.629Z,4974.00
2023-07-08T10:13:33.653Z,5068.00
2023-07-08T10:14:33.598Z,5041.00
2023-07-08T10:15:33.563Z,5112.00
2023-07-08T10:16:33.646Z,5129.00
2023-07-08T10:17:33.686Z,5161.00
2023-07-08T10:18:33.552Z,5210.00
2023-07-08T10:19:34.545Z,5215.00
2023-07-08T10:20:33.523Z,5295.00
2023-07-08T10:21:33.502Z,5289.00
2023-07-08T10:22:33.494Z,5343.00
2023-07-08T10:23:33.508Z,5404.00
2023-07-08T10:24:33.484Z,5372.00
2023-07-08T10:25:33.479Z,5447.00
2023-07-08T10:26:33.469Z,5479.00
2023-07-08T10:27:33.426Z,5524.00
2023-07-08T10:28:33.463Z,5514.00
2023-07-08T10:29:33.424Z,5611.00
2023-07-08T10:30:33.427Z,5513.00
2023-07-08T10:31:33.470Z,5588.00
2023-07-08T10:32:33.446Z,5632.00
2023-07-08T10:33:33.396Z,5639.00
2023-07-08T10:34:33.419Z,5652.00
2023-07-08T10:35:33.359Z,5682.00
2023-07-08T10:36:33.403Z,5704.00
2023-07-08T10:37:33.319Z,5722.00
2023-07-08T10:38:33.354Z,5761.00
2023-07-08T10:39:33.306Z,5743.00
2023-07-08T10:40:33.392Z,5806.00
2023-07-08T10:41:33.290Z,5802.00
2023-07-08T10:42:33.278Z,5861.00
2023-07-08T10:43:33.324Z,5851.00
2023-07-08T10:44:33.287Z,5889.00
2023-07-08T10:45:33.350Z,5897.00
2023-07-08T10:46:33.254Z,5927.00
2023-07-08T10:47:34.235Z,5929.00
2023-07-08T10:48:33.237Z,5973.00
2023-07-08T10:49:33.217Z,5969.00
2023-07-08T10:50:33.206Z,5994.00
2023-07-08T10:51:33.203Z,5999.00
2023-07-08T10:52:33.221Z,6023.00
2023-07-08T10:53:33.168Z,6026.00
2023-07-08T10:54:33.151Z,6024.00
2023-07-08T10:55:33.153Z,6039.00
2023-07-08T10:56:33.141Z,6055.00
2023-07-08T10:57:33.126Z,6069.00
2023-07-08T10:58:33.134Z,6065.00
2023-07-08T10:59:33.092Z,6062.00
2023-07-08T11:00:33.131Z,6086.00
2023-07-08T11:01:33.213Z,6101.00
2023-07-08T11:02:33.111Z,6087.00
2023-07-08T11:03:33.067Z,6115.00
2023-07-08T11:04:33.053Z,6131.00
2023-07-08T11:05:33.055Z,6146.00
2023-07-08T11:06:33.048Z,6119.00
2023-07-08T11:07:33.037Z,6143.00
2023-07-08T11:08:33.027Z,6134.00
2023-07-08T11:09:33.803Z,6168.00
2023-07-08T11:10:34.584Z,6154.00
2023-07-08T11:11:32.973Z,6160.00
2023-07-08T11:12:33.063Z,6216.00
2023-07-08T11:13:33.006Z,6157.00
2023-07-08T11:14:32.961Z,6248.00
2023-07-08T11:15:32.990Z,6220.00
2023-07-08T11:16:36.399Z,6231.00
2023-07-08T11:17:33.077Z,6214.00
2023-07-08T11:18:33.716Z,6248.00
2023-07-08T11:19:32.900Z,6256.00
2023-07-08T11:20:32.911Z,6253.00
2023-07-08T11:21:33.028Z,6268.00
2023-07-08T11:22:32.870Z,6234.00
2023-07-08T11:23:32.902Z,6296.00
2023-07-08T11:24:32.872Z,6249.00
2023-07-08T11:25:32.854Z,6293.00
2023-07-08T11:26:32.852Z,6243.00
2023-07-08T11:27:32.853Z,6271.00
2023-07-08T11:28:32.833Z,6288.00
2023-07-08T11:29:32.801Z,6278.00
2023-07-08T11:30:32.921Z,6336.00
2023-07-08T11:31:32.930Z,6313.00
2023-07-08T11:32:32.778Z,6325.00
2023-07-08T11:33:35.208Z,6301.00
2023-07-08T11:34:32.741Z,6316.00
2023-07-08T11:35:32.746Z,6324.00
2023-07-08T11:36:32.726Z,6339.00
2023-07-08T11:37:32.758Z,6355.00
2023-07-08T11:38:32.714Z,6346.00
2023-07-08T11:39:32.693Z,6321.00
2023-07-08T11:40:32.708Z,6331.00
2023-07-08T11:41:32.701Z,6384.00
2023-07-08T11:42:32.674Z,6365.00
2023-07-08T11:43:32.688Z,6320.00
2023-07-08T11:44:32.685Z,6334.00
2023-07-08T11:45:32.693Z,6343.00
2023-07-08T11:46:32.644Z,6363.00
2023-07-08T11:47:32.662Z,6321.00
2023-07-08T11:48:32.780Z,6326.00
2023-07-08T11:49:32.681Z,6286.00
2023-07-08T11:50:32.580Z,6317.00
2023-07-08T11:51:32.650Z,6325.00
2023-07-08T11:52:32.589Z,6477.00
2023-07-08T11:53:32.636Z,6419.00
2023-07-08T11:54:32.554Z,6354.00
2023-07-08T11:55:32.536Z,6434.00
2023-07-08T11:56:32.529Z,6544.00
2023-07-08T11:57:32.542Z,6647.00
2023-07-08T11:58:32.517Z,6638.00
2023-07-08T11:59:32.494Z,6541.00
2023-07-08T12:00:32.484Z,6516.00
2023-07-08T12:01:32.568Z,6515.00
2023-07-08T12:02:32.592Z,6571.00
2023-07-08T12:03:32.545Z,6647.00
2023-07-08T12:04:32.445Z,7164.00
2023-07-08T12:05:32.434Z,5891.00
2023-07-08T12:06:32.503Z,5790.00
2023-07-08T12:07:32.458Z,5803.00
2023-07-08T12:08:32.545Z,5854.00
2023-07-08T12:09:32.425Z,5854.00
2023-07-08T12:10:32.412Z,5885.00
2023-07-08T12:11:32.382Z,5884.00
2023-07-08T12:12:32.365Z,5953.00
2023-07-08T12:13:32.407Z,5933.00
2023-07-08T12:14:32.505Z,5921.00
2023-07-08T12:15:32.477Z,5982.00
2023-07-08T12:16:32.536Z,5933.00
2023-07-08T12:17:32.410Z,5950.00
2023-07-08T12:18:32.455Z,5985.00
2023-07-08T12:19:35.027Z,5967.00
2023-07-08T12:20:32.339Z,6022.00
2023-07-08T12:21:32.407Z,6014.00
2023-07-08T12:22:32.389Z,6031.00
2023-07-08T12:23:32.378Z,6009.00
2023-07-08T12:24:32.339Z,6091.00
2023-07-08T12:25:32.371Z,6031.00
2023-07-08T12:26:32.378Z,6074.00
2023-07-08T12:27:32.302Z,6044.00
2023-07-08T12:28:32.365Z,6026.00
2023-07-08T12:29:32.293Z,6105.00
2023-07-08T12:30:32.444Z,6088.00
2023-07-08T12:31:32.410Z,6111.00
2023-07-08T12:32:32.348Z,6163.00
2023-07-08T12:33:32.292Z,6109.00
2023-07-08T12:34:32.303Z,6151.00
2023-07-08T12:35:32.328Z,6126.00
2023-07-08T12:36:32.112Z,6166.00
2023-07-08T12:37:32.098Z,6110.00
2023-07-08T12:38:32.079Z,6159.00
2023-07-08T12:39:32.080Z,6156.00
2023-07-08T12:40:32.063Z,6096.00
2023-07-08T12:41:32.085Z,6205.00
2023-07-08T12:42:32.069Z,6157.00
2023-07-08T12:43:32.027Z,6073.00
2023-07-08T12:44:32.042Z,6206.00
2023-07-08T12:45:32.035Z,6112.00
2023-07-08T12:46:32.081Z,6141.00
2023-07-08T12:47:32.013Z,6152.00
2023-07-08T12:48:32.017Z,6183.00
2023-07-08T12:49:31.974Z,6176.00
2023-07-08T12:50:31.982Z,6142.00
2023-07-08T12:51:32.022Z,6207.00
2023-07-08T12:52:31.955Z,6237.00
2023-07-08T12:53:31.987Z,6250.00
2023-07-08T12:54:31.935Z,6329.00
2023-07-08T12:55:31.927Z,6311.00
2023-07-08T12:56:32.753Z,6239.00
2023-07-08T12:57:31.897Z,6287.00
2023-07-08T12:58:31.914Z,6370.00
2023-07-08T12:59:31.892Z,6274.00
2023-07-08T13:00:31.906Z,6407.00
2023-07-08T13:01:32.029Z,6290.00
2023-07-08T13:02:31.999Z,6345.00
2023-07-08T13:03:31.914Z,6372.00
2023-07-08T13:04:31.820Z,6338.00
2023-07-08T13:05:31.827Z,6344.00
2023-07-08T13:06:31.823Z,6322.00
2023-07-08T13:07:31.852Z,6379.00
2023-07-08T13:08:31.785Z,6381.00
2023-07-08T13:09:31.780Z,6372.00
2023-07-08T13:10:31.763Z,6360.00
2023-07-08T13:11:31.757Z,6382.00
2023-07-08T13:12:31.750Z,6352.00
2023-07-08T13:13:31.748Z,6239.00
2023-07-08T13:14:31.728Z,6272.00
2023-07-08T13:15:31.721Z,6353.00
2023-07-08T13:16:31.754Z,6368.00
2023-07-08T13:17:31.754Z,6339.00
2023-07-08T13:18:31.676Z,6344.00
2023-07-08T13:19:31.683Z,6288.00
2023-07-08T13:20:31.689Z,6321.00
2023-07-08T13:21:31.696Z,6266.00
2023-07-08T13:22:31.668Z,6255.00
2023-07-08T13:23:31.640Z,6255.00
2023-07-08T13:24:31.630Z,6185.00
2023-07-08T13:25:31.616Z,6229.00
2023-07-08T13:26:31.656Z,6234.00
2023-07-08T13:27:31.593Z,6248.00
2023-07-08T13:28:31.592Z,6179.00
2023-07-08T13:29:31.569Z,6212.00
2023-07-08T13:30:31.605Z,6249.00
2023-07-08T13:31:31.645Z,6246.00
2023-07-08T13:32:31.575Z,6239.00
2023-07-08T13:33:31.544Z,6271.00
2023-07-08T13:34:31.516Z,6265.00
2023-07-08T13:35:31.517Z,6390.00
2023-07-08T13:36:31.505Z,6277.00
2023-07-08T13:37:31.514Z,6113.00
2023-07-08T13:38:31.478Z,6512.00
2023-07-08T13:39:31.478Z,6348.00
2023-07-08T13:40:31.502Z,6772.00
2023-07-08T13:41:31.453Z,3198.00
2023-07-08T13:42:31.455Z,15020.00
2023-07-08T13:43:31.432Z,25798.00
2023-07-08T13:44:31.414Z,20006.00
2023-07-08T13:45:31.426Z,23368.00
2023-07-08T13:46:31.524Z,28494.00
2023-07-08T13:47:31.492Z,23411.00
2023-07-08T13:48:31.373Z,18017.00
2023-07-08T13:49:31.376Z,27441.00
2023-07-08T13:50:31.354Z,34732.00
2023-07-08T13:51:31.362Z,27566.00
2023-07-08T13:52:31.348Z,22736.00
2023-07-08T13:53:31.330Z,22452.00
2023-07-08T13:54:31.312Z,32659.00
2023-07-08T13:55:31.376Z,35715.00
2023-07-08T13:56:31.301Z,29989.00
2023-07-08T13:57:34.069Z,28481.00
2023-07-08T13:58:31.306Z,34649.00
2023-07-08T13:59:31.276Z,38348.00
2023-07-08T14:00:31.307Z,38228.00
2023-07-08T14:01:31.272Z,33469.00
2023-07-08T14:02:31.417Z,32971.00
2023-07-08T14:03:32.744Z,33589.00
2023-07-08T14:04:31.348Z,33626.00
2023-07-08T14:05:33.862Z,35248.00
2023-07-08T14:06:31.362Z,37073.00
2023-07-08T14:07:32.457Z,39479.00
2023-07-08T14:08:31.968Z,39902.00
2023-07-08T14:09:32.059Z,40291.00
2023-07-08T14:10:31.273Z,36604.00
2023-07-08T14:11:31.169Z,31389.00
2023-07-08T14:12:31.184Z,31936.00
2023-07-08T14:13:31.193Z,34017.00
2023-07-08T14:14:31.131Z,33048.00
2023-07-08T14:15:31.128Z,37778.00
2023-07-08T14:16:31.177Z,72885.00
2023-07-08T14:17:31.160Z,72370.00
2023-07-08T14:18:31.296Z,36103.00
2023-07-08T14:19:31.103Z,28322.00
2023-07-08T14:20:31.073Z,21435.00
2023-07-08T14:21:31.092Z,28881.00
2023-07-08T14:22:31.137Z,36816.00
2023-07-08T14:23:31.072Z,36621.00
2023-07-08T14:24:31.049Z,73769.00
2023-07-08T14:25:31.076Z,74571.00
2023-07-08T14:26:31.077Z,74028.00
2023-07-08T14:27:31.027Z,72230.00
2023-07-08T14:28:31.020Z,42423.00
2023-07-08T14:29:31.018Z,72431.00
2023-07-08T14:30:31.039Z,73670.00
2023-07-08T14:31:31.043Z,74660.00
2023-07-08T14:32:31.016Z,74182.00
2023-07-08T14:33:30.977Z,30340.00
2023-07-08T14:34:31.004Z,74800.00
2023-07-08T14:35:30.948Z,74842.00
2023-07-08T14:36:30.975Z,73567.00
2023-07-08T14:37:30.947Z,72480.00
2023-07-08T14:38:30.915Z,73352.00
2023-07-08T14:39:30.964Z,31351.00
2023-07-08T14:40:30.944Z,31309.00
2023-07-08T14:41:30.915Z,72917.00
2023-07-08T14:42:30.905Z,73376.00
2023-07-08T14:43:30.897Z,74580.00
2023-07-08T14:44:30.900Z,75785.00
2023-07-08T14:45:30.900Z,76322.00
2023-07-08T14:46:30.981Z,76140.00
2023-07-08T14:47:30.927Z,75334.00
2023-07-08T14:48:30.904Z,73784.00
2023-07-08T14:49:30.855Z,72164.00
2023-07-08T14:50:30.863Z,72165.00
2023-07-08T14:51:30.840Z,73919.00
2023-07-08T14:52:30.833Z,75301.00
2023-07-08T14:53:30.794Z,76285.00
2023-07-08T14:54:30.804Z,76530.00
2023-07-08T14:55:30.835Z,75727.00
2023-07-08T14:56:30.778Z,75218.00
2023-07-08T14:57:30.771Z,75447.00
2023-07-08T14:58:30.761Z,76207.00
2023-07-08T14:59:30.759Z,76395.00
2023-07-08T15:00:30.826Z,75498.00
2023-07-08T15:01:30.823Z,74518.00
2023-07-08T15:02:30.751Z,74646.00
2023-07-08T15:03:30.782Z,75388.00
2023-07-08T15:04:30.704Z,75650.00
2023-07-08T15:05:30.709Z,75550.00
2023-07-08T15:06:30.681Z,75993.00
2023-07-08T15:07:30.696Z,76491.00
2023-07-08T15:08:30.665Z,75926.00
2023-07-08T15:09:30.668Z,74434.00
2023-07-08T15:10:30.688Z,74008.00
2023-07-08T15:11:30.654Z,75664.00
2023-07-08T15:12:30.660Z,77264.00
2023-07-08T15:13:30.657Z,77607.00
2023-07-08T15:14:30.621Z,77626.00
2023-07-08T15:15:30.607Z,78586.00
2023-07-08T15:16:30.605Z,79446.00
2023-07-08T15:17:30.747Z,77815.00
2023-07-08T15:18:30.858Z,76270.00
2023-07-08T15:19:30.762Z,75807.00
2023-07-08T15:20:30.644Z,75950.00
2023-07-08T15:21:30.581Z,77662.00
2023-07-08T15:22:30.554Z,78541.00
2023-07-08T15:23:30.557Z,78575.00
2023-07-08T15:24:30.544Z,78049.00
2023-07-08T15:25:30.552Z,77546.00
2023-07-08T15:26:30.560Z,77885.00
2023-07-08T15:27:30.594Z,78156.00
2023-07-08T15:28:30.525Z,78025.00
2023-07-08T15:29:30.530Z,78050.00
2023-07-08T15:30:30.522Z,78291.00
2023-07-08T15:31:30.506Z,77959.00
2023-07-08T15:32:40.930Z,77378.00
2023-07-08T15:33:30.491Z,77362.00
2023-07-08T15:34:30.476Z,77602.00
2023-07-08T15:35:30.468Z,77908.00
2023-07-08T15:36:30.529Z,78146.00
2023-07-08T15:37:30.479Z,78637.00
2023-07-08T15:38:30.439Z,79087.00
2023-07-08T15:39:30.443Z,78540.00
2023-07-08T15:40:30.415Z,77328.00
2023-07-08T15:41:30.402Z,77320.00
2023-07-08T15:42:30.463Z,78306.00
2023-07-08T15:43:30.404Z,79367.00
2023-07-08T15:44:30.382Z,80389.00
2023-07-08T15:45:30.394Z,80780.00
2023-07-08T15:46:30.414Z,79939.00
2023-07-08T15:47:30.397Z,78870.00
2023-07-08T15:48:30.448Z,78482.00
2023-07-08T15:49:30.350Z,77748.00
2023-07-08T15:50:30.334Z,76952.00
2023-07-08T15:51:30.330Z,76575.00
2023-07-08T15:52:30.370Z,75891.00
2023-07-08T15:53:30.376Z,76668.00
2023-07-08T15:54:30.324Z,78776.00
2023-07-08T15:55:30.329Z,79433.00
2023-07-08T15:56:30.292Z,79380.00
2023-07-08T15:57:30.284Z,80780.00
2023-07-08T15:58:30.283Z,82219.00
2023-07-08T15:59:30.300Z,82225.00
2023-07-08T16:00:30.246Z,80636.00
2023-07-08T16:01:30.280Z,78909.00
2023-07-08T16:02:30.399Z,78431.00
2023-07-08T16:03:30.399Z,78622.00
2023-07-08T16:04:30.229Z,78876.00
2023-07-08T16:05:30.221Z,79145.00
2023-07-08T16:06:30.203Z,79416.00
2023-07-08T16:07:30.216Z,79668.00
2023-07-08T16:08:30.195Z,79925.00
2023-07-08T16:09:30.226Z,80403.00
2023-07-08T16:10:30.171Z,79909.00